BCS22W LEAL-LEVT
Flight info
| Callsign | BCS22W |
|---|---|
| Flight time | 1h 4m |
| Altitude | 34000 |
| Route | ASTRO L150 RBO N867 DGO |
| Aircraft | B738/M-SDE2E3FGHIRWXY/LB1 |
Departure
| Time | 2026-05-07 11:27 |
|---|---|
| Airport | Alicante-Elche Miguel Hernández Airport (LEAL) |
Arrival
| Time | 2026-05-07 12:31 |
|---|---|
| Airport | Vitoria Airport (LEVT) |
| Time | Latitude | Longitude | Altitude | Speed | Heading |
|---|---|---|---|---|---|
| 2026-05-07 10:51 | 38.28680 | -0.56357 | 108 ft | 0 kts | 9° |
| 2026-05-07 11:15 | 38.28670 | -0.56359 | 108 ft | 4 kts | 8° |
| 2026-05-07 11:15 | 38.28644 | -0.56362 | 108 ft | 4 kts | 356° |
| 2026-05-07 11:15 | 38.28621 | -0.56355 | 107 ft | 4 kts | 305° |
| 2026-05-07 11:15 | 38.28617 | -0.56345 | 105 ft | 1 kts | 280° |
| 2026-05-07 11:20 | 38.28618 | -0.56354 | 107 ft | 3 kts | 280° |
| 2026-05-07 11:20 | 38.28622 | -0.56384 | 108 ft | 4 kts | 280° |
| 2026-05-07 11:20 | 38.28627 | -0.56415 | 110 ft | 4 kts | 281° |
| 2026-05-07 11:21 | 38.28631 | -0.56445 | 112 ft | 3 kts | 279° |
| 2026-05-07 11:21 | 38.28635 | -0.56475 | 113 ft | 3 kts | 280° |
| 2026-05-07 11:21 | 38.28639 | -0.56504 | 114 ft | 3 kts | 280° |
| 2026-05-07 11:21 | 38.28643 | -0.56532 | 116 ft | 3 kts | 276° |
| 2026-05-07 11:22 | 38.28641 | -0.56559 | 117 ft | 3 kts | 256° |
| 2026-05-07 11:22 | 38.28613 | -0.56592 | 118 ft | 8 kts | 204° |
| 2026-05-07 11:22 | 38.28547 | -0.56610 | 115 ft | 10 kts | 189° |
| 2026-05-07 11:22 | 38.28515 | -0.56676 | 120 ft | 10 kts | 280° |
| 2026-05-07 11:23 | 38.28527 | -0.56764 | 122 ft | 10 kts | 280° |
| 2026-05-07 11:23 | 38.28538 | -0.56848 | 124 ft | 10 kts | 280° |
| 2026-05-07 11:23 | 38.28550 | -0.56930 | 132 ft | 9 kts | 280° |
| 2026-05-07 11:23 | 38.28562 | -0.57011 | 136 ft | 9 kts | 280° |
| 2026-05-07 11:24 | 38.28573 | -0.57089 | 139 ft | 9 kts | 279° |
| 2026-05-07 11:24 | 38.28583 | -0.57166 | 142 ft | 9 kts | 280° |
| 2026-05-07 11:24 | 38.28594 | -0.57240 | 146 ft | 8 kts | 280° |
| 2026-05-07 11:24 | 38.28604 | -0.57311 | 148 ft | 8 kts | 280° |
| 2026-05-07 11:25 | 38.28610 | -0.57381 | 150 ft | 8 kts | 261° |
| 2026-05-07 11:25 | 38.28571 | -0.57423 | 153 ft | 8 kts | 191° |
| 2026-05-07 11:25 | 38.28520 | -0.57436 | 154 ft | 7 kts | 191° |
| 2026-05-07 11:25 | 38.28469 | -0.57446 | 154 ft | 8 kts | 181° |
| 2026-05-07 11:26 | 38.28437 | -0.57384 | 151 ft | 11 kts | 101° |
| 2026-05-07 11:26 | 38.28399 | -0.57112 | 139 ft | 65 kts | 99° |
| 2026-05-07 11:26 | 38.28279 | -0.56248 | 113 ft | 129 kts | 98° |
| 2026-05-07 11:26 | 38.28125 | -0.55032 | 506 ft | 145 kts | 99° |
| 2026-05-07 11:27 | 38.27906 | -0.53724 | 1156 ft | 151 kts | 101° |
| 2026-05-07 11:27 | 38.27681 | -0.52408 | 1644 ft | 166 kts | 101° |
| 2026-05-07 11:27 | 38.27417 | -0.50815 | 1797 ft | 197 kts | 101° |
| 2026-05-07 11:27 | 38.27129 | -0.49016 | 1993 ft | 220 kts | 99° |
| 2026-05-07 11:28 | 38.26823 | -0.47060 | 2420 ft | 231 kts | 100° |
| 2026-05-07 11:28 | 38.26498 | -0.45047 | 3065 ft | 233 kts | 99° |
| 2026-05-07 11:28 | 38.26176 | -0.43044 | 3817 ft | 234 kts | 100° |
| 2026-05-07 11:28 | 38.25851 | -0.41007 | 4643 ft | 233 kts | 100° |
| 2026-05-07 11:29 | 38.25525 | -0.38962 | 5325 ft | 237 kts | 101° |
| 2026-05-07 11:29 | 38.25199 | -0.36914 | 6133 ft | 239 kts | 101° |
| 2026-05-07 11:29 | 38.24868 | -0.34831 | 6905 ft | 240 kts | 102° |
| 2026-05-07 11:29 | 38.24435 | -0.32765 | 7618 ft | 243 kts | 117° |
| 2026-05-07 11:30 | 38.23375 | -0.31122 | 8348 ft | 248 kts | 143° |
| 2026-05-07 11:30 | 38.21810 | -0.30193 | 9128 ft | 252 kts | 167° |
| 2026-05-07 11:30 | 38.20051 | -0.30208 | 9917 ft | 258 kts | 193° |
| 2026-05-07 11:30 | 38.18454 | -0.31260 | 10689 ft | 265 kts | 220° |
| 2026-05-07 11:31 | 38.17394 | -0.33211 | 11400 ft | 275 kts | 249° |
| 2026-05-07 11:31 | 38.17168 | -0.35623 | 12242 ft | 279 kts | 277° |
| 2026-05-07 11:31 | 38.17777 | -0.37965 | 13056 ft | 283 kts | 296° |
| 2026-05-07 11:31 | 38.18770 | -0.40156 | 13836 ft | 288 kts | 301° |
| 2026-05-07 11:32 | 38.20911 | -0.44481 | 15351 ft | 292 kts | 300° |
| 2026-05-07 11:32 | 38.21979 | -0.46681 | 16178 ft | 292 kts | 298° |
| 2026-05-07 11:32 | 38.23035 | -0.48897 | 16962 ft | 294 kts | 297° |
| 2026-05-07 11:33 | 38.24090 | -0.51142 | 17757 ft | 296 kts | 297° |
| 2026-05-07 11:33 | 38.25150 | -0.53409 | 18527 ft | 298 kts | 296° |
| 2026-05-07 11:33 | 38.26203 | -0.55667 | 19187 ft | 301 kts | 296° |
| 2026-05-07 11:33 | 38.27543 | -0.57779 | 19741 ft | 318 kts | 316° |
| 2026-05-07 11:34 | 38.29382 | -0.59530 | 19927 ft | 341 kts | 320° |
| 2026-05-07 11:34 | 38.31390 | -0.61312 | 20085 ft | 362 kts | 321° |
| 2026-05-07 11:34 | 38.33519 | -0.63183 | 20246 ft | 381 kts | 321° |
| 2026-05-07 11:34 | 38.35703 | -0.65114 | 20652 ft | 391 kts | 321° |
| 2026-05-07 11:35 | 38.37943 | -0.67111 | 21246 ft | 394 kts | 320° |
| 2026-05-07 11:35 | 38.40196 | -0.69137 | 21891 ft | 397 kts | 320° |
| 2026-05-07 11:35 | 38.42460 | -0.71187 | 22499 ft | 401 kts | 320° |
| 2026-05-07 11:35 | 38.44745 | -0.73263 | 23094 ft | 405 kts | 319° |
| 2026-05-07 11:36 | 38.47063 | -0.75375 | 23663 ft | 410 kts | 319° |
| 2026-05-07 11:36 | 38.49369 | -0.77478 | 24180 ft | 414 kts | 318° |
| 2026-05-07 11:36 | 38.51728 | -0.79629 | 24690 ft | 417 kts | 318° |
| 2026-05-07 11:36 | 38.54109 | -0.81802 | 25144 ft | 422 kts | 318° |
| 2026-05-07 11:37 | 38.56513 | -0.83997 | 25575 ft | 426 kts | 318° |
| 2026-05-07 11:37 | 38.58934 | -0.86211 | 26009 ft | 430 kts | 318° |
| 2026-05-07 11:37 | 38.61379 | -0.88448 | 26438 ft | 433 kts | 318° |
| 2026-05-07 11:37 | 38.63844 | -0.90704 | 26860 ft | 437 kts | 318° |
| 2026-05-07 11:38 | 38.66288 | -0.92944 | 27284 ft | 441 kts | 318° |
| 2026-05-07 11:38 | 38.68802 | -0.95249 | 27708 ft | 444 kts | 318° |
| 2026-05-07 11:38 | 38.71326 | -0.97565 | 28113 ft | 448 kts | 318° |
| 2026-05-07 11:38 | 38.73876 | -0.99909 | 28515 ft | 451 kts | 318° |
| 2026-05-07 11:39 | 38.76449 | -1.02275 | 28919 ft | 455 kts | 317° |
| 2026-05-07 11:39 | 38.79035 | -1.04657 | 29288 ft | 459 kts | 317° |
| 2026-05-07 11:39 | 38.81603 | -1.07023 | 29690 ft | 460 kts | 317° |
| 2026-05-07 11:39 | 38.84209 | -1.09424 | 30196 ft | 459 kts | 317° |
| 2026-05-07 11:40 | 38.86807 | -1.11819 | 30712 ft | 456 kts | 317° |
| 2026-05-07 11:40 | 38.89379 | -1.14193 | 31258 ft | 453 kts | 317° |
| 2026-05-07 11:40 | 38.91923 | -1.16548 | 31828 ft | 449 kts | 317° |
| 2026-05-07 11:40 | 38.94453 | -1.18897 | 32321 ft | 447 kts | 317° |
| 2026-05-07 11:41 | 38.96946 | -1.21218 | 32712 ft | 447 kts | 317° |
| 2026-05-07 11:41 | 38.99479 | -1.23576 | 33114 ft | 447 kts | 316° |
| 2026-05-07 11:41 | 39.02000 | -1.25924 | 33588 ft | 445 kts | 316° |
| 2026-05-07 11:41 | 39.03658 | -1.27465 | 33897 ft | 444 kts | 316° |
| 2026-05-07 11:42 | 39.06180 | -1.29803 | 33959 ft | 450 kts | 316° |
| 2026-05-07 11:42 | 39.11253 | -1.34495 | 33963 ft | 448 kts | 316° |
| 2026-05-07 11:43 | 39.16283 | -1.39149 | 33977 ft | 443 kts | 316° |
| 2026-05-07 11:43 | 39.21287 | -1.43805 | 33991 ft | 444 kts | 316° |
| 2026-05-07 11:44 | 39.26309 | -1.48480 | 33983 ft | 445 kts | 316° |
| 2026-05-07 11:44 | 39.31297 | -1.53149 | 34013 ft | 446 kts | 316° |
| 2026-05-07 11:45 | 39.36325 | -1.57885 | 33994 ft | 447 kts | 317° |
| 2026-05-07 11:45 | 39.41359 | -1.62634 | 33976 ft | 447 kts | 317° |
| 2026-05-07 11:46 | 39.46356 | -1.67354 | 33985 ft | 446 kts | 316° |
| 2026-05-07 11:46 | 39.51370 | -1.72099 | 33985 ft | 445 kts | 316° |
| 2026-05-07 11:47 | 39.56337 | -1.76807 | 33985 ft | 445 kts | 316° |
| 2026-05-07 11:47 | 39.61350 | -1.81565 | 33984 ft | 445 kts | 316° |
| 2026-05-07 11:48 | 39.66315 | -1.86285 | 33983 ft | 444 kts | 316° |
| 2026-05-07 11:48 | 39.71299 | -1.91034 | 34013 ft | 443 kts | 317° |
| 2026-05-07 11:49 | 39.76270 | -1.95779 | 33990 ft | 442 kts | 317° |
| 2026-05-07 11:49 | 39.81184 | -2.00479 | 33973 ft | 439 kts | 317° |
| 2026-05-07 11:50 | 39.86102 | -2.05191 | 33982 ft | 437 kts | 317° |
| 2026-05-07 11:50 | 39.90973 | -2.09869 | 33976 ft | 436 kts | 317° |
| 2026-05-07 11:51 | 39.95870 | -2.14579 | 33976 ft | 436 kts | 317° |
| 2026-05-07 11:51 | 40.00765 | -2.19290 | 33968 ft | 437 kts | 317° |
| 2026-05-07 11:52 | 40.05644 | -2.23973 | 33971 ft | 438 kts | 318° |
| 2026-05-07 11:52 | 40.10567 | -2.28707 | 33963 ft | 439 kts | 318° |
| 2026-05-07 11:53 | 40.15462 | -2.33425 | 33968 ft | 439 kts | 318° |
| 2026-05-07 11:53 | 40.20388 | -2.38180 | 33953 ft | 439 kts | 318° |
| 2026-05-07 11:54 | 40.25300 | -2.42932 | 33963 ft | 438 kts | 319° |
| 2026-05-07 11:54 | 40.30160 | -2.47650 | 33944 ft | 436 kts | 319° |
| 2026-05-07 11:55 | 40.35028 | -2.52381 | 33951 ft | 434 kts | 319° |
| 2026-05-07 11:55 | 40.39523 | -2.57570 | 33957 ft | 426 kts | 308° |
| 2026-05-07 11:56 | 40.43444 | -2.63324 | 33949 ft | 426 kts | 307° |
| 2026-05-07 11:56 | 40.47386 | -2.69150 | 33954 ft | 427 kts | 307° |
| 2026-05-07 11:57 | 40.51365 | -2.74956 | 33933 ft | 427 kts | 307° |
| 2026-05-07 11:57 | 40.55361 | -2.80758 | 33937 ft | 427 kts | 308° |
| 2026-05-07 11:58 | 40.59329 | -2.86523 | 33939 ft | 428 kts | 308° |
| 2026-05-07 11:58 | 40.63326 | -2.92343 | 33934 ft | 428 kts | 308° |
| 2026-05-07 11:59 | 40.67316 | -2.98164 | 33934 ft | 427 kts | 307° |
| 2026-05-07 11:59 | 40.71273 | -3.03951 | 33932 ft | 428 kts | 307° |
| 2026-05-07 12:00 | 40.75264 | -3.09798 | 33942 ft | 428 kts | 308° |
| 2026-05-07 12:00 | 40.79253 | -3.15653 | 33929 ft | 428 kts | 308° |
| 2026-05-07 12:01 | 40.83335 | -3.21339 | 33909 ft | 433 kts | 321° |
| 2026-05-07 12:01 | 40.86028 | -3.23163 | 33945 ft | 440 kts | 340° |
| 2026-05-07 12:01 | 40.89055 | -3.23858 | 33922 ft | 445 kts | 359° |
| 2026-05-07 12:02 | 40.95199 | -3.22666 | 33935 ft | 447 kts | 9° |
| 2026-05-07 12:02 | 41.01295 | -3.21149 | 33929 ft | 448 kts | 8° |
| 2026-05-07 12:03 | 41.07459 | -3.19763 | 33940 ft | 449 kts | 8° |
| 2026-05-07 12:03 | 41.13604 | -3.18381 | 33941 ft | 450 kts | 8° |
| 2026-05-07 12:04 | 41.19799 | -3.16977 | 33930 ft | 451 kts | 8° |
| 2026-05-07 12:04 | 41.26013 | -3.15565 | 33714 ft | 453 kts | 8° |
| 2026-05-07 12:04 | 41.29106 | -3.14862 | 33402 ft | 448 kts | 8° |
| 2026-05-07 12:05 | 41.32127 | -3.14173 | 32993 ft | 443 kts | 8° |
| 2026-05-07 12:05 | 41.35153 | -3.13484 | 32598 ft | 438 kts | 8° |
| 2026-05-07 12:05 | 41.38154 | -3.12799 | 32183 ft | 435 kts | 9° |
| 2026-05-07 12:05 | 41.41131 | -3.12120 | 31786 ft | 431 kts | 9° |
| 2026-05-07 12:06 | 41.44049 | -3.11454 | 31404 ft | 428 kts | 9° |
| 2026-05-07 12:06 | 41.46978 | -3.10784 | 31020 ft | 425 kts | 9° |
| 2026-05-07 12:06 | 41.49886 | -3.10119 | 30634 ft | 422 kts | 9° |
| 2026-05-07 12:06 | 41.52772 | -3.09462 | 30252 ft | 419 kts | 9° |
| 2026-05-07 12:07 | 41.55638 | -3.08813 | 29859 ft | 416 kts | 9° |
| 2026-05-07 12:07 | 41.58490 | -3.08169 | 29416 ft | 413 kts | 9° |
| 2026-05-07 12:07 | 41.61306 | -3.07533 | 29026 ft | 409 kts | 9° |
| 2026-05-07 12:07 | 41.64098 | -3.06900 | 28628 ft | 405 kts | 9° |
| 2026-05-07 12:08 | 41.66866 | -3.06272 | 28248 ft | 401 kts | 9° |
| 2026-05-07 12:08 | 41.69572 | -3.05658 | 27855 ft | 397 kts | 9° |
| 2026-05-07 12:08 | 41.72294 | -3.05039 | 27468 ft | 394 kts | 9° |
| 2026-05-07 12:08 | 41.75001 | -3.04421 | 27085 ft | 393 kts | 9° |
| 2026-05-07 12:09 | 41.77660 | -3.03812 | 26710 ft | 390 kts | 9° |
| 2026-05-07 12:09 | 41.80342 | -3.03195 | 26345 ft | 390 kts | 9° |
| 2026-05-07 12:09 | 41.83019 | -3.02578 | 25969 ft | 391 kts | 9° |
| 2026-05-07 12:09 | 41.85704 | -3.01960 | 25603 ft | 389 kts | 9° |
| 2026-05-07 12:10 | 41.88369 | -3.01345 | 25221 ft | 387 kts | 9° |
| 2026-05-07 12:10 | 41.91018 | -3.00734 | 24851 ft | 384 kts | 9° |
| 2026-05-07 12:10 | 41.93623 | -3.00133 | 24494 ft | 382 kts | 9° |
| 2026-05-07 12:10 | 41.96244 | -2.99527 | 24121 ft | 380 kts | 9° |
| 2026-05-07 12:11 | 41.98861 | -2.98922 | 23760 ft | 379 kts | 9° |
| 2026-05-07 12:11 | 42.01458 | -2.98321 | 23356 ft | 378 kts | 9° |
| 2026-05-07 12:11 | 42.04011 | -2.97730 | 22933 ft | 376 kts | 9° |
| 2026-05-07 12:11 | 42.06585 | -2.97133 | 22541 ft | 373 kts | 9° |
| 2026-05-07 12:12 | 42.09133 | -2.96542 | 22191 ft | 369 kts | 9° |
| 2026-05-07 12:12 | 42.11660 | -2.95956 | 21802 ft | 367 kts | 9° |
| 2026-05-07 12:12 | 42.14161 | -2.95373 | 21467 ft | 363 kts | 9° |
| 2026-05-07 12:12 | 42.16646 | -2.94795 | 21101 ft | 360 kts | 9° |
| 2026-05-07 12:13 | 42.19074 | -2.94230 | 20763 ft | 358 kts | 9° |
| 2026-05-07 12:13 | 42.21523 | -2.93661 | 20403 ft | 355 kts | 9° |
| 2026-05-07 12:13 | 42.23953 | -2.93095 | 20059 ft | 354 kts | 9° |
| 2026-05-07 12:13 | 42.26377 | -2.92530 | 19705 ft | 352 kts | 9° |
| 2026-05-07 12:14 | 42.28783 | -2.91968 | 19362 ft | 350 kts | 9° |
| 2026-05-07 12:14 | 42.31182 | -2.91407 | 19024 ft | 348 kts | 9° |
| 2026-05-07 12:14 | 42.33530 | -2.90858 | 18690 ft | 346 kts | 9° |
| 2026-05-07 12:14 | 42.35904 | -2.90303 | 18341 ft | 345 kts | 8° |
| 2026-05-07 12:15 | 42.38258 | -2.89752 | 17973 ft | 343 kts | 8° |
| 2026-05-07 12:15 | 42.40607 | -2.89201 | 17599 ft | 341 kts | 8° |
| 2026-05-07 12:15 | 42.42945 | -2.88654 | 17243 ft | 338 kts | 8° |
| 2026-05-07 12:15 | 42.45271 | -2.88287 | 16879 ft | 334 kts | 355° |
| 2026-05-07 12:16 | 42.47483 | -2.88926 | 16593 ft | 327 kts | 340° |
| 2026-05-07 12:16 | 42.49646 | -2.89868 | 16244 ft | 325 kts | 339° |
| 2026-05-07 12:16 | 42.51789 | -2.90829 | 15908 ft | 323 kts | 339° |
| 2026-05-07 12:16 | 42.53925 | -2.91777 | 15572 ft | 321 kts | 340° |
| 2026-05-07 12:17 | 42.56053 | -2.92706 | 15247 ft | 319 kts | 340° |
| 2026-05-07 12:17 | 42.58140 | -2.93607 | 14934 ft | 318 kts | 340° |
| 2026-05-07 12:17 | 42.60245 | -2.94513 | 14609 ft | 316 kts | 340° |
| 2026-05-07 12:17 | 42.62370 | -2.95290 | 14271 ft | 317 kts | 352° |
| 2026-05-07 12:18 | 42.64560 | -2.94964 | 13960 ft | 318 kts | 19° |
| 2026-05-07 12:18 | 42.66488 | -2.93524 | 13755 ft | 316 kts | 37° |
| 2026-05-07 12:18 | 42.68237 | -2.91708 | 13496 ft | 316 kts | 38° |
| 2026-05-07 12:18 | 42.69963 | -2.89897 | 13237 ft | 311 kts | 38° |
| 2026-05-07 12:19 | 42.71664 | -2.88135 | 12907 ft | 310 kts | 37° |
| 2026-05-07 12:19 | 42.73382 | -2.86370 | 12579 ft | 308 kts | 37° |
| 2026-05-07 12:19 | 42.75140 | -2.84655 | 12113 ft | 311 kts | 35° |
| 2026-05-07 12:19 | 42.76917 | -2.82984 | 11777 ft | 310 kts | 35° |
| 2026-05-07 12:20 | 42.78673 | -2.81339 | 11446 ft | 309 kts | 35° |
| 2026-05-07 12:20 | 42.80443 | -2.79674 | 11138 ft | 307 kts | 35° |
| 2026-05-07 12:20 | 42.82195 | -2.78018 | 10817 ft | 306 kts | 35° |
| 2026-05-07 12:20 | 42.83937 | -2.76366 | 10495 ft | 304 kts | 36° |
| 2026-05-07 12:21 | 42.85675 | -2.74714 | 10198 ft | 302 kts | 36° |
| 2026-05-07 12:21 | 42.87380 | -2.73093 | 10059 ft | 294 kts | 36° |
| 2026-05-07 12:21 | 42.89014 | -2.71531 | 9857 ft | 289 kts | 36° |
| 2026-05-07 12:21 | 42.90666 | -2.69941 | 9463 ft | 289 kts | 37° |
| 2026-05-07 12:22 | 42.92308 | -2.68358 | 9146 ft | 288 kts | 36° |
| 2026-05-07 12:22 | 42.93943 | -2.66781 | 8831 ft | 286 kts | 37° |
| 2026-05-07 12:22 | 42.95569 | -2.65216 | 8531 ft | 285 kts | 37° |
| 2026-05-07 12:22 | 42.96932 | -2.63357 | 8225 ft | 279 kts | 62° |
| 2026-05-07 12:23 | 42.97564 | -2.60897 | 7969 ft | 272 kts | 85° |
| 2026-05-07 12:23 | 42.97734 | -2.58353 | 7832 ft | 264 kts | 87° |
| 2026-05-07 12:23 | 42.97878 | -2.55877 | 7691 ft | 258 kts | 88° |
| 2026-05-07 12:23 | 42.98024 | -2.53471 | 7574 ft | 250 kts | 89° |
| 2026-05-07 12:24 | 42.98168 | -2.51154 | 7490 ft | 243 kts | 89° |
| 2026-05-07 12:24 | 42.98470 | -2.48904 | 7341 ft | 242 kts | 68° |
| 2026-05-07 12:24 | 42.99572 | -2.47174 | 7155 ft | 242 kts | 38° |
| 2026-05-07 12:24 | 43.00956 | -2.45924 | 6916 ft | 244 kts | 24° |
| 2026-05-07 12:25 | 43.02623 | -2.45673 | 6677 ft | 243 kts | 347° |
| 2026-05-07 12:25 | 43.04110 | -2.46687 | 6430 ft | 238 kts | 316° |
| 2026-05-07 12:25 | 43.05169 | -2.48358 | 6215 ft | 229 kts | 304° |
| 2026-05-07 12:25 | 43.06087 | -2.50108 | 5948 ft | 223 kts | 301° |
| 2026-05-07 12:26 | 43.06628 | -2.52025 | 5701 ft | 213 kts | 269° |
| 2026-05-07 12:26 | 43.06280 | -2.53898 | 5490 ft | 201 kts | 230° |
| 2026-05-07 12:26 | 43.05305 | -2.55206 | 5325 ft | 196 kts | 218° |
| 2026-05-07 12:26 | 43.04321 | -2.56468 | 5122 ft | 196 kts | 220° |
| 2026-05-07 12:27 | 43.03290 | -2.57632 | 4954 ft | 188 kts | 213° |
| 2026-05-07 12:27 | 43.02256 | -2.58673 | 4720 ft | 181 kts | 212° |
| 2026-05-07 12:27 | 43.01243 | -2.59676 | 4470 ft | 173 kts | 212° |
| 2026-05-07 12:27 | 43.00275 | -2.60625 | 4164 ft | 168 kts | 213° |
| 2026-05-07 12:28 | 42.99363 | -2.61533 | 3985 ft | 161 kts | 213° |
| 2026-05-07 12:28 | 42.98470 | -2.62444 | 3704 ft | 159 kts | 212° |
| 2026-05-07 12:28 | 42.97577 | -2.63286 | 3534 ft | 151 kts | 213° |
| 2026-05-07 12:28 | 42.96725 | -2.64142 | 3409 ft | 150 kts | 210° |
| 2026-05-07 12:29 | 42.95872 | -2.64956 | 3213 ft | 150 kts | 212° |
| 2026-05-07 12:29 | 42.95021 | -2.65784 | 3071 ft | 153 kts | 213° |
| 2026-05-07 12:29 | 42.94163 | -2.66643 | 2832 ft | 153 kts | 213° |
| 2026-05-07 12:29 | 42.93299 | -2.67486 | 2607 ft | 152 kts | 216° |
| 2026-05-07 12:30 | 42.92450 | -2.68329 | 2392 ft | 150 kts | 215° |
| 2026-05-07 12:30 | 42.91607 | -2.69153 | 2197 ft | 148 kts | 217° |
| 2026-05-07 12:30 | 42.90783 | -2.69974 | 2026 ft | 146 kts | 217° |
| 2026-05-07 12:30 | 42.89975 | -2.70777 | 1833 ft | 145 kts | 217° |
| 2026-05-07 12:31 | 42.89164 | -2.71578 | 1682 ft | 138 kts | 216° |
| 2026-05-07 12:31 | 42.88539 | -2.72196 | 1685 ft | 80 kts | 216° |
| 2026-05-07 12:31 | 42.88249 | -2.72481 | 1686 ft | 34 kts | 216° |
| 2026-05-07 12:31 | 42.88090 | -2.72637 | 1674 ft | 17 kts | 216° |
| 2026-05-07 12:32 | 42.88028 | -2.72703 | 1679 ft | 17 kts | 225° |
| 2026-05-07 12:32 | 42.87938 | -2.72865 | 1673 ft | 16 kts | 242° |
| 2026-05-07 12:32 | 42.87896 | -2.73000 | 1675 ft | 15 kts | 259° |
| 2026-05-07 12:32 | 42.87899 | -2.73069 | 1676 ft | 6 kts | 280° |
| 2026-05-07 12:33 | 42.87866 | -2.73160 | 1681 ft | 6 kts | 216° |
| 2026-05-07 12:33 | 42.87834 | -2.73191 | 1684 ft | 6 kts | 216° |
| 2026-05-07 12:33 | 42.87802 | -2.73222 | 1676 ft | 6 kts | 216° |
| 2026-05-07 12:34 | 42.87771 | -2.73252 | 1680 ft | 5 kts | 216° |
| 2026-05-07 12:34 | 42.87751 | -2.73294 | 1682 ft | 5 kts | 261° |
| 2026-05-07 12:34 | 42.87768 | -2.73338 | 1684 ft | 5 kts | 306° |
| 2026-05-07 12:34 | 42.87790 | -2.73379 | 1678 ft | 5 kts | 306° |
| 2026-05-07 12:35 | 42.87811 | -2.73419 | 1676 ft | 5 kts | 306° |
| 2026-05-07 12:35 | 42.87827 | -2.73463 | 1676 ft | 5 kts | 293° |
| 2026-05-07 12:35 | 42.87843 | -2.73505 | 1682 ft | 5 kts | 306° |
| 2026-05-07 12:35 | 42.87870 | -2.73530 | 1679 ft | 5 kts | 10° |
| 2026-05-07 12:36 | 42.87902 | -2.73504 | 1680 ft | 5 kts | 35° |
| 2026-05-07 12:36 | 42.87912 | -2.73494 | 1684 ft | 0 kts | 36° |
| 2026-05-07 12:36 | 42.87918 | -2.73488 | 1681 ft | 0 kts | 35° |